Skookum — WDF2844 — position and weather

sailwx.info

Track history (hours):
 
Tides and Currents Weather Stations Pressure Air Temp Water Temp Dewpoint Dewpoint Depression Visibility Wind Speed Wind Dir Waves Ship Positions

Skookum

Owner: Hudson, Richard E, Damascus, OR. More information available from US FCC via Universal Licensing System and Coast Guard Vessel Documentation Center.

Last reported at 2017-Nov-18 22:33 UTC. Time now 2017-Dec-15 15:49 UTC.
Position N 48°31' W 122°37'.
Warning: this ship's position is 26 days out of date.

Length 12 m.

Type: Pleasure craft. MMSI: 367432530.

Date/timePositionNaut miles runAvg speedWind from/ knotsBaromVisibWave heightAir tempDewpointWater temp
2017-Nov-18 22:33N 48°31' W 122°37'0 1.6
2017-Nov-18 22:30N 48°31' W 122°36'3 4.4
2017-Nov-18 21:48N 48°34' W 122°36'6 6.3
2017-Nov-18 20:53N 48°36' W 122°44'3 6.6
2017-Nov-18 20:29N 48°36' W 122°48'4 7.1
2017-Nov-18 19:59N 48°35' W 122°53'4 7.2
2017-Nov-18 19:29N 48°33' W 122°57'3 0.1
2017-Nov-17 23:48N 48°32' W 123°01'2 5.0
2017-Nov-17 23:28N 48°34' W 123°01'5 1.9
2017-Nov-17 20:55N 48°35' W 122°53'3 7.3
2017-Nov-17 20:30N 48°33' W 122°50'4 6.4
2017-Nov-17 19:54N 48°32' W 122°45'4 7.1
2017-Nov-17 19:18N 48°31' W 122°38'  
Track history (hours):
 
Tides and Currents Weather Stations Pressure Air Temp Water Temp Dewpoint Dewpoint Depression Visibility Wind Speed Wind Dir Waves Ship Positions

Skookum

Owner: Hudson, Richard E, Damascus, OR. More information available from US FCC via Universal Licensing System and Coast Guard Vessel Documentation Center.

Last reported at 2017-Nov-18 22:33 UTC. Time now 2017-Dec-15 15:49 UTC.
Position N 48°31' W 122°37'.
Warning: this ship's position is 26 days out of date.

Length 12 m.

Type: Pleasure craft. MMSI: 367432530.

Date/timePositionNaut miles runAvg speedWind from/ knotsBaromVisibWave heightAir tempDewpointWater temp
2017-Nov-18 22:33N 48°31' W 122°37'0 1.6
2017-Nov-18 22:30N 48°31' W 122°36'3 4.4
2017-Nov-18 21:48N 48°34' W 122°36'6 6.3
2017-Nov-18 20:53N 48°36' W 122°44'3 6.6
2017-Nov-18 20:29N 48°36' W 122°48'4 7.1
2017-Nov-18 19:59N 48°35' W 122°53'4 7.2
2017-Nov-18 19:29N 48°33' W 122°57'3 0.1
2017-Nov-17 23:48N 48°32' W 123°01'2 5.0
2017-Nov-17 23:28N 48°34' W 123°01'5 1.9
2017-Nov-17 20:55N 48°35' W 122°53'3 7.3
2017-Nov-17 20:30N 48°33' W 122°50'4 6.4
2017-Nov-17 19:54N 48°32' W 122°45'4 7.1
2017-Nov-17 19:18N 48°31' W 122°38'  

Dump ship's entire track history